sensor_id;sensor_type;location;lat;lon;timestamp;pressure;altitude;pressure_sealevel;temperature
24201;BMP280;2801;50.972;7.856;2022-07-10T00:01:30;98464.94;;;14.31
24201;BMP280;2801;50.972;7.856;2022-07-10T00:03:57;98473.81;;;14.32
24201;BMP280;2801;50.972;7.856;2022-07-10T00:06:25;98473.69;;;14.28
24201;BMP280;2801;50.972;7.856;2022-07-10T00:08:51;98457.34;;;14.25
24201;BMP280;2801;50.972;7.856;2022-07-10T00:11:18;98465.59;;;14.28
24201;BMP280;2801;50.972;7.856;2022-07-10T00:13:45;98469.72;;;14.26
24201;BMP280;2801;50.972;7.856;2022-07-10T00:16:12;98468.00;;;14.21
24201;BMP280;2801;50.972;7.856;2022-07-10T00:18:39;98476.22;;;14.16
24201;BMP280;2801;50.972;7.856;2022-07-10T00:21:07;98445.03;;;13.98
24201;BMP280;2801;50.972;7.856;2022-07-10T00:23:34;98447.22;;;13.96
24201;BMP280;2801;50.972;7.856;2022-07-10T00:26:01;98463.56;;;14.00
24201;BMP280;2801;50.972;7.856;2022-07-10T00:28:28;98468.16;;;13.99
24201;BMP280;2801;50.972;7.856;2022-07-10T00:30:54;98464.53;;;13.95
24201;BMP280;2801;50.972;7.856;2022-07-10T00:33:21;98467.84;;;13.92
24201;BMP280;2801;50.972;7.856;2022-07-10T00:35:48;98464.09;;;13.85
24201;BMP280;2801;50.972;7.856;2022-07-10T00:38:15;98466.28;;;13.83
24201;BMP280;2801;50.972;7.856;2022-07-10T00:40:42;98464.88;;;13.77
24201;BMP280;2801;50.972;7.856;2022-07-10T00:43:09;98457.94;;;13.67
24201;BMP280;2801;50.972;7.856;2022-07-10T00:45:36;98459.19;;;13.70
24201;BMP280;2801;50.972;7.856;2022-07-10T00:48:04;98453.00;;;13.61
24201;BMP280;2801;50.972;7.856;2022-07-10T00:50:32;98468.38;;;13.60
24201;BMP280;2801;50.972;7.856;2022-07-10T00:53:01;98472.34;;;13.54
24201;BMP280;2801;50.972;7.856;2022-07-10T00:55:30;98468.25;;;13.48
24201;BMP280;2801;50.972;7.856;2022-07-10T00:57:58;98458.09;;;13.45
24201;BMP280;2801;50.972;7.856;2022-07-10T01:00:25;98462.03;;;13.39
24201;BMP280;2801;50.972;7.856;2022-07-10T01:02:53;98461.72;;;13.32
24201;BMP280;2801;50.972;7.856;2022-07-10T01:05:21;98461.25;;;13.30
24201;BMP280;2801;50.972;7.856;2022-07-10T01:07:47;98452.84;;;13.23
24201;BMP280;2801;50.972;7.856;2022-07-10T01:10:14;98450.78;;;13.20
24201;BMP280;2801;50.972;7.856;2022-07-10T01:12:42;98447.28;;;13.11
24201;BMP280;2801;50.972;7.856;2022-07-10T01:15:10;98447.13;;;13.08
24201;BMP280;2801;50.972;7.856;2022-07-10T01:17:37;98446.91;;;12.96
24201;BMP280;2801;50.972;7.856;2022-07-10T01:20:09;98447.38;;;12.89
24201;BMP280;2801;50.972;7.856;2022-07-10T01:22:36;98444.06;;;12.84
24201;BMP280;2801;50.972;7.856;2022-07-10T01:25:05;98436.91;;;12.79
24201;BMP280;2801;50.972;7.856;2022-07-10T01:27:32;98422.81;;;12.74
24201;BMP280;2801;50.972;7.856;2022-07-10T01:30:00;98426.78;;;12.68
24201;BMP280;2801;50.972;7.856;2022-07-10T01:32:35;98406.00;;;12.51
24201;BMP280;2801;50.972;7.856;2022-07-10T01:35:03;98435.41;;;12.48
24201;BMP280;2801;50.972;7.856;2022-07-10T01:37:30;98429.97;;;12.31
24201;BMP280;2801;50.972;7.856;2022-07-10T01:39:56;98435.75;;;12.16
24201;BMP280;2801;50.972;7.856;2022-07-10T01:42:23;98443.47;;;12.09
24201;BMP280;2801;50.972;7.856;2022-07-10T01:44:50;98434.38;;;11.96
24201;BMP280;2801;50.972;7.856;2022-07-10T01:47:17;98427.56;;;11.90
24201;BMP280;2801;50.972;7.856;2022-07-10T01:49:44;98423.09;;;11.86
24201;BMP280;2801;50.972;7.856;2022-07-10T01:52:11;98415.50;;;11.79
24201;BMP280;2801;50.972;7.856;2022-07-10T01:54:38;98439.22;;;11.86
24201;BMP280;2801;50.972;7.856;2022-07-10T01:57:05;98437.34;;;11.86
24201;BMP280;2801;50.972;7.856;2022-07-10T01:59:32;98446.63;;;11.80
24201;BMP280;2801;50.972;7.856;2022-07-10T02:01:59;98447.97;;;11.69
24201;BMP280;2801;50.972;7.856;2022-07-10T02:04:26;98448.56;;;11.66
24201;BMP280;2801;50.972;7.856;2022-07-10T02:07:17;98449.56;;;11.57
24201;BMP280;2801;50.972;7.856;2022-07-10T02:09:45;98432.03;;;11.51
24201;BMP280;2801;50.972;7.856;2022-07-10T02:12:14;98439.78;;;11.52
24201;BMP280;2801;50.972;7.856;2022-07-10T02:14:42;98442.16;;;11.54
24201;BMP280;2801;50.972;7.856;2022-07-10T02:17:09;98432.50;;;11.53
24201;BMP280;2801;50.972;7.856;2022-07-10T02:19:38;98418.91;;;11.49
24201;BMP280;2801;50.972;7.856;2022-07-10T02:22:04;98426.16;;;11.49
24201;BMP280;2801;50.972;7.856;2022-07-10T02:24:32;98436.41;;;11.47
24201;BMP280;2801;50.972;7.856;2022-07-10T02:26:58;98430.16;;;11.38
24201;BMP280;2801;50.972;7.856;2022-07-10T02:29:25;98428.09;;;11.34
24201;BMP280;2801;50.972;7.856;2022-07-10T02:31:52;98412.69;;;11.26
24201;BMP280;2801;50.972;7.856;2022-07-10T02:34:19;98422.84;;;11.29
24201;BMP280;2801;50.972;7.856;2022-07-10T02:36:46;98411.31;;;11.29
24201;BMP280;2801;50.972;7.856;2022-07-10T02:39:13;98400.75;;;11.32
24201;BMP280;2801;50.972;7.856;2022-07-10T02:41:40;98399.66;;;11.33
24201;BMP280;2801;50.972;7.856;2022-07-10T02:44:07;98404.72;;;11.35
24201;BMP280;2801;50.972;7.856;2022-07-10T02:46:34;98406.72;;;11.29
24201;BMP280;2801;50.972;7.856;2022-07-10T02:49:02;98398.91;;;11.19
24201;BMP280;2801;50.972;7.856;2022-07-10T02:51:30;98409.16;;;11.17
24201;BMP280;2801;50.972;7.856;2022-07-10T02:53:57;98402.28;;;11.03
24201;BMP280;2801;50.972;7.856;2022-07-10T02:56:25;98400.19;;;11.00
24201;BMP280;2801;50.972;7.856;2022-07-10T02:58:52;98399.97;;;10.96
24201;BMP280;2801;50.972;7.856;2022-07-10T03:01:19;98405.97;;;10.93
24201;BMP280;2801;50.972;7.856;2022-07-10T03:03:46;98404.19;;;10.89
24201;BMP280;2801;50.972;7.856;2022-07-10T03:06:13;98412.84;;;10.86
24201;BMP280;2801;50.972;7.856;2022-07-10T03:08:40;98411.84;;;10.82
24201;BMP280;2801;50.972;7.856;2022-07-10T03:11:09;98402.00;;;10.77
24201;BMP280;2801;50.972;7.856;2022-07-10T03:13:36;98390.41;;;10.68
24201;BMP280;2801;50.972;7.856;2022-07-10T03:16:03;98407.69;;;10.76
24201;BMP280;2801;50.972;7.856;2022-07-10T03:18:30;98406.59;;;10.77
24201;BMP280;2801;50.972;7.856;2022-07-10T03:20:57;98404.59;;;10.82
24201;BMP280;2801;50.972;7.856;2022-07-10T03:23:24;98404.59;;;10.82
24201;BMP280;2801;50.972;7.856;2022-07-10T03:25:52;98402.63;;;10.74
24201;BMP280;2801;50.972;7.856;2022-07-10T03:28:19;98408.47;;;10.76
24201;BMP280;2801;50.972;7.856;2022-07-10T03:30:46;98412.19;;;10.67
24201;BMP280;2801;50.972;7.856;2022-07-10T03:33:13;98415.44;;;10.64
24201;BMP280;2801;50.972;7.856;2022-07-10T03:35:40;98412.38;;;10.57
24201;BMP280;2801;50.972;7.856;2022-07-10T03:38:07;98413.28;;;10.52
24201;BMP280;2801;50.972;7.856;2022-07-10T03:40:34;98405.56;;;10.51
24201;BMP280;2801;50.972;7.856;2022-07-10T03:43:01;98409.69;;;10.57
24201;BMP280;2801;50.972;7.856;2022-07-10T03:45:28;98414.56;;;10.55
24201;BMP280;2801;50.972;7.856;2022-07-10T03:47:54;98419.34;;;10.58
24201;BMP280;2801;50.972;7.856;2022-07-10T03:50:21;98415.34;;;10.55
24201;BMP280;2801;50.972;7.856;2022-07-10T03:52:48;98429.28;;;10.57
24201;BMP280;2801;50.972;7.856;2022-07-10T03:55:15;98419.13;;;10.54
24201;BMP280;2801;50.972;7.856;2022-07-10T03:57:42;98422.03;;;10.58
24201;BMP280;2801;50.972;7.856;2022-07-10T04:00:24;98427.56;;;10.61
24201;BMP280;2801;50.972;7.856;2022-07-10T04:03:03;98422.72;;;10.63
24201;BMP280;2801;50.972;7.856;2022-07-10T04:05:31;98423.41;;;10.69
24201;BMP280;2801;50.972;7.856;2022-07-10T04:07:59;98421.72;;;10.73
24201;BMP280;2801;50.972;7.856;2022-07-10T04:10:29;98424.16;;;10.83
24201;BMP280;2801;50.972;7.856;2022-07-10T04:12:57;98417.78;;;10.92
24201;BMP280;2801;50.972;7.856;2022-07-10T04:15:25;98418.16;;;10.99
24201;BMP280;2801;50.972;7.856;2022-07-10T04:17:52;98414.00;;;11.07
24201;BMP280;2801;50.972;7.856;2022-07-10T04:20:20;98416.84;;;11.10
24201;BMP280;2801;50.972;7.856;2022-07-10T04:22:48;98425.75;;;11.19
24201;BMP280;2801;50.972;7.856;2022-07-10T04:25:16;98427.06;;;11.22
24201;BMP280;2801;50.972;7.856;2022-07-10T04:27:43;98427.41;;;11.29
24201;BMP280;2801;50.972;7.856;2022-07-10T04:30:10;98426.22;;;11.35
24201;BMP280;2801;50.972;7.856;2022-07-10T04:32:42;98437.03;;;11.44
24201;BMP280;2801;50.972;7.856;2022-07-10T04:35:09;98428.72;;;11.54
24201;BMP280;2801;50.972;7.856;2022-07-10T04:37:35;98430.88;;;11.65
24201;BMP280;2801;50.972;7.856;2022-07-10T04:40:04;98404.81;;;11.66
24201;BMP280;2801;50.972;7.856;2022-07-10T04:42:31;98419.19;;;11.92
24201;BMP280;2801;50.972;7.856;2022-07-10T04:44:58;98426.38;;;12.05
24201;BMP280;2801;50.972;7.856;2022-07-10T04:47:25;98417.09;;;12.19
24201;BMP280;2801;50.972;7.856;2022-07-10T04:49:52;98425.38;;;12.31
24201;BMP280;2801;50.972;7.856;2022-07-10T04:52:19;98430.97;;;12.43
24201;BMP280;2801;50.972;7.856;2022-07-10T04:54:46;98421.19;;;12.56
24201;BMP280;2801;50.972;7.856;2022-07-10T04:57:13;98418.50;;;12.64
24201;BMP280;2801;50.972;7.856;2022-07-10T04:59:40;98422.81;;;12.74
24201;BMP280;2801;50.972;7.856;2022-07-10T05:02:06;98402.88;;;12.75
24201;BMP280;2801;50.972;7.856;2022-07-10T05:04:35;98421.91;;;12.95
24201;BMP280;2801;50.972;7.856;2022-07-10T05:07:02;98431.47;;;13.10
24201;BMP280;2801;50.972;7.856;2022-07-10T05:09:28;98435.13;;;13.22
24201;BMP280;2801;50.972;7.856;2022-07-10T05:11:55;98433.19;;;13.31
24201;BMP280;2801;50.972;7.856;2022-07-10T05:14:22;98432.09;;;13.41
24201;BMP280;2801;50.972;7.856;2022-07-10T05:16:49;98431.59;;;13.56
24201;BMP280;2801;50.972;7.856;2022-07-10T05:19:16;98437.81;;;13.65
24201;BMP280;2801;50.972;7.856;2022-07-10T05:21:43;98439.69;;;13.73
24201;BMP280;2801;50.972;7.856;2022-07-10T05:24:10;98440.28;;;13.87
24201;BMP280;2801;50.972;7.856;2022-07-10T05:26:37;98419.63;;;13.99
24201;BMP280;2801;50.972;7.856;2022-07-10T05:29:04;98431.75;;;14.39
24201;BMP280;2801;50.972;7.856;2022-07-10T05:31:31;98438.78;;;14.61
24201;BMP280;2801;50.972;7.856;2022-07-10T05:33:58;98421.75;;;14.69
24201;BMP280;2801;50.972;7.856;2022-07-10T05:36:25;98433.47;;;14.73
24201;BMP280;2801;50.972;7.856;2022-07-10T05:38:53;98426.75;;;14.88
24201;BMP280;2801;50.972;7.856;2022-07-10T05:41:19;98431.47;;;14.91
24201;BMP280;2801;50.972;7.856;2022-07-10T05:43:46;98428.13;;;14.94
24201;BMP280;2801;50.972;7.856;2022-07-10T05:46:13;98431.28;;;14.96
24201;BMP280;2801;50.972;7.856;2022-07-10T05:48:40;98427.50;;;14.88
24201;BMP280;2801;50.972;7.856;2022-07-10T05:51:08;98432.31;;;14.82
24201;BMP280;2801;50.972;7.856;2022-07-10T05:53:55;98401.38;;;14.51
24201;BMP280;2801;50.972;7.856;2022-07-10T05:56:22;98435.25;;;14.69
24201;BMP280;2801;50.972;7.856;2022-07-10T05:58:49;98433.38;;;14.61
24201;BMP280;2801;50.972;7.856;2022-07-10T06:01:16;98427.72;;;14.54
24201;BMP280;2801;50.972;7.856;2022-07-10T06:03:43;98441.22;;;14.45
24201;BMP280;2801;50.972;7.856;2022-07-10T06:06:12;98421.88;;;14.43
24201;BMP280;2801;50.972;7.856;2022-07-10T06:08:45;98433.41;;;14.52
24201;BMP280;2801;50.972;7.856;2022-07-10T06:11:13;98430.59;;;14.49
24201;BMP280;2801;50.972;7.856;2022-07-10T06:13:40;98427.59;;;14.42
24201;BMP280;2801;50.972;7.856;2022-07-10T06:16:07;98429.06;;;14.39
24201;BMP280;2801;50.972;7.856;2022-07-10T06:18:34;98427.13;;;14.40
24201;BMP280;2801;50.972;7.856;2022-07-10T06:21:01;98436.94;;;14.44
24201;BMP280;2801;50.972;7.856;2022-07-10T06:23:29;98436.44;;;14.51
24201;BMP280;2801;50.972;7.856;2022-07-10T06:25:57;98426.94;;;14.53
24201;BMP280;2801;50.972;7.856;2022-07-10T06:28:24;98411.41;;;14.42
24201;BMP280;2801;50.972;7.856;2022-07-10T06:30:50;98430.38;;;14.62
24201;BMP280;2801;50.972;7.856;2022-07-10T06:33:23;98425.38;;;14.73
24201;BMP280;2801;50.972;7.856;2022-07-10T06:35:50;98440.09;;;14.84
24201;BMP280;2801;50.972;7.856;2022-07-10T06:38:17;98429.88;;;14.90
24201;BMP280;2801;50.972;7.856;2022-07-10T06:40:47;98436.38;;;15.18
24201;BMP280;2801;50.972;7.856;2022-07-10T06:43:14;98424.34;;;15.68
24201;BMP280;2801;50.972;7.856;2022-07-10T06:45:41;98427.59;;;15.94
24201;BMP280;2801;50.972;7.856;2022-07-10T06:48:08;98420.78;;;16.09
24201;BMP280;2801;50.972;7.856;2022-07-10T06:50:35;98417.94;;;16.17
24201;BMP280;2801;50.972;7.856;2022-07-10T06:53:03;98425.97;;;16.14
24201;BMP280;2801;50.972;7.856;2022-07-10T06:55:31;98431.94;;;16.07
24201;BMP280;2801;50.972;7.856;2022-07-10T06:57:59;98421.16;;;15.87
24201;BMP280;2801;50.972;7.856;2022-07-10T07:00:27;98414.03;;;15.82
24201;BMP280;2801;50.972;7.856;2022-07-10T07:02:54;98413.53;;;15.68
24201;BMP280;2801;50.972;7.856;2022-07-10T07:05:22;98414.09;;;15.62
24201;BMP280;2801;50.972;7.856;2022-07-10T07:07:48;98420.03;;;15.55
24201;BMP280;2801;50.972;7.856;2022-07-10T07:10:15;98419.56;;;15.53
24201;BMP280;2801;50.972;7.856;2022-07-10T07:12:42;98426.66;;;15.46
24201;BMP280;2801;50.972;7.856;2022-07-10T07:15:09;98423.94;;;15.46
24201;BMP280;2801;50.972;7.856;2022-07-10T07:17:43;98425.78;;;15.54
24201;BMP280;2801;50.972;7.856;2022-07-10T07:20:29;98433.84;;;15.74
24201;BMP280;2801;50.972;7.856;2022-07-10T07:23:14;98423.00;;;15.95
24201;BMP280;2801;50.972;7.856;2022-07-10T07:25:41;98426.09;;;15.85
24201;BMP280;2801;50.972;7.856;2022-07-10T07:28:15;98428.31;;;16.03
24201;BMP280;2801;50.972;7.856;2022-07-10T07:30:43;98432.16;;;16.14
24201;BMP280;2801;50.972;7.856;2022-07-10T07:33:10;98422.88;;;16.48
24201;BMP280;2801;50.972;7.856;2022-07-10T07:35:38;98429.97;;;16.76
24201;BMP280;2801;50.972;7.856;2022-07-10T07:38:05;98428.84;;;16.89
24201;BMP280;2801;50.972;7.856;2022-07-10T07:40:35;98419.50;;;17.26
24201;BMP280;2801;50.972;7.856;2022-07-10T07:43:04;98421.47;;;17.81
24201;BMP280;2801;50.972;7.856;2022-07-10T07:45:31;98426.88;;;18.24
24201;BMP280;2801;50.972;7.856;2022-07-10T07:47:59;98425.06;;;18.75
24201;BMP280;2801;50.972;7.856;2022-07-10T07:50:29;98416.34;;;19.00
24201;BMP280;2801;50.972;7.856;2022-07-10T07:53:00;98410.78;;;19.12
24201;BMP280;2801;50.972;7.856;2022-07-10T07:55:29;98414.44;;;19.20
24201;BMP280;2801;50.972;7.856;2022-07-10T07:57:57;98414.88;;;18.87
24201;BMP280;2801;50.972;7.856;2022-07-10T08:00:27;98421.13;;;18.41
24201;BMP280;2801;50.972;7.856;2022-07-10T08:02:57;98416.28;;;18.03
24201;BMP280;2801;50.972;7.856;2022-07-10T08:05:24;98418.94;;;17.72
24201;BMP280;2801;50.972;7.856;2022-07-10T08:07:54;98418.34;;;17.39
24201;BMP280;2801;50.972;7.856;2022-07-10T08:10:26;98411.00;;;17.40
24201;BMP280;2801;50.972;7.856;2022-07-10T08:12:53;98390.00;;;17.49
24201;BMP280;2801;50.972;7.856;2022-07-10T08:15:22;98399.63;;;17.89
24201;BMP280;2801;50.972;7.856;2022-07-10T08:17:51;98402.13;;;18.26
24201;BMP280;2801;50.972;7.856;2022-07-10T08:20:19;98404.38;;;18.55
24201;BMP280;2801;50.972;7.856;2022-07-10T08:22:48;98399.63;;;18.83
24201;BMP280;2801;50.972;7.856;2022-07-10T08:25:22;98392.19;;;19.14
24201;BMP280;2801;50.972;7.856;2022-07-10T08:27:49;98391.72;;;19.47
24201;BMP280;2801;50.972;7.856;2022-07-10T08:30:16;98386.78;;;19.94
24201;BMP280;2801;50.972;7.856;2022-07-10T08:32:43;98369.59;;;20.31
24201;BMP280;2801;50.972;7.856;2022-07-10T08:35:11;98385.84;;;20.50
24201;BMP280;2801;50.972;7.856;2022-07-10T08:37:43;98382.59;;;20.19
24201;BMP280;2801;50.972;7.856;2022-07-10T08:40:13;98387.63;;;19.75
24201;BMP280;2801;50.972;7.856;2022-07-10T08:42:41;98392.13;;;19.49
24201;BMP280;2801;50.972;7.856;2022-07-10T08:45:12;98393.66;;;19.27
24201;BMP280;2801;50.972;7.856;2022-07-10T08:47:40;98397.81;;;19.06
24201;BMP280;2801;50.972;7.856;2022-07-10T08:50:21;98396.41;;;18.77
24201;BMP280;2801;50.972;7.856;2022-07-10T08:53:09;98404.78;;;18.53
24201;BMP280;2801;50.972;7.856;2022-07-10T08:55:39;98396.50;;;18.18
24201;BMP280;2801;50.972;7.856;2022-07-10T08:58:08;98421.63;;;18.15
24201;BMP280;2801;50.972;7.856;2022-07-10T09:00:36;98415.19;;;17.92
24201;BMP280;2801;50.972;7.856;2022-07-10T09:03:03;98421.09;;;17.67
24201;BMP280;2801;50.972;7.856;2022-07-10T09:05:30;98420.94;;;17.48
24201;BMP280;2801;50.972;7.856;2022-07-10T09:07:57;98419.28;;;17.31
24201;BMP280;2801;50.972;7.856;2022-07-10T09:10:26;98419.19;;;17.16
24201;BMP280;2801;50.972;7.856;2022-07-10T09:12:56;98433.66;;;17.08
24201;BMP280;2801;50.972;7.856;2022-07-10T09:15:27;98431.19;;;17.03
24201;BMP280;2801;50.972;7.856;2022-07-10T09:18:02;98443.38;;;16.97
24201;BMP280;2801;50.972;7.856;2022-07-10T09:20:37;98431.75;;;16.96
24201;BMP280;2801;50.972;7.856;2022-07-10T09:23:19;98447.25;;;16.84
24201;BMP280;2801;50.972;7.856;2022-07-10T09:25:51;98454.00;;;16.78
24201;BMP280;2801;50.972;7.856;2022-07-10T09:28:21;98443.50;;;16.76
24201;BMP280;2801;50.972;7.856;2022-07-10T09:30:49;98441.81;;;16.72
24201;BMP280;2801;50.972;7.856;2022-07-10T09:33:31;98420.06;;;16.44
24201;BMP280;2801;50.972;7.856;2022-07-10T09:36:12;98441.47;;;16.49
24201;BMP280;2801;50.972;7.856;2022-07-10T09:41:34;98450.41;;;16.50
24201;BMP280;2801;50.972;7.856;2022-07-10T09:44:03;98443.34;;;16.37
24201;BMP280;2801;50.972;7.856;2022-07-10T09:46:39;98447.91;;;16.45
24201;BMP280;2801;50.972;7.856;2022-07-10T09:49:12;98447.56;;;16.58
24201;BMP280;2801;50.972;7.856;2022-07-10T09:51:42;98442.28;;;16.62
24201;BMP280;2801;50.972;7.856;2022-07-10T09:54:15;98439.59;;;16.50
24201;BMP280;2801;50.972;7.856;2022-07-10T09:56:48;98433.59;;;16.56
24201;BMP280;2801;50.972;7.856;2022-07-10T09:59:20;98426.47;;;16.64
24201;BMP280;2801;50.972;7.856;2022-07-10T10:01:51;98431.69;;;16.69
24201;BMP280;2801;50.972;7.856;2022-07-10T10:04:22;98423.91;;;16.55
24201;BMP280;2801;50.972;7.856;2022-07-10T10:06:54;98419.16;;;16.52
24201;BMP280;2801;50.972;7.856;2022-07-10T10:09:29;98438.69;;;16.70
24201;BMP280;2801;50.972;7.856;2022-07-10T10:12:08;98427.41;;;16.80
24201;BMP280;2801;50.972;7.856;2022-07-10T10:14:38;98434.94;;;16.86
24201;BMP280;2801;50.972;7.856;2022-07-10T10:17:07;98432.25;;;16.86
24201;BMP280;2801;50.972;7.856;2022-07-10T10:19:36;98431.91;;;16.88
24201;BMP280;2801;50.972;7.856;2022-07-10T10:22:23;98426.00;;;16.98
24201;BMP280;2801;50.972;7.856;2022-07-10T10:24:51;98442.16;;;16.82
24201;BMP280;2801;50.972;7.856;2022-07-10T10:27:20;98440.03;;;16.76
24201;BMP280;2801;50.972;7.856;2022-07-10T10:29:48;98446.22;;;16.64
24201;BMP280;2801;50.972;7.856;2022-07-10T10:32:16;98441.81;;;16.60
24201;BMP280;2801;50.972;7.856;2022-07-10T10:34:46;98441.25;;;16.42
24201;BMP280;2801;50.972;7.856;2022-07-10T10:40:05;98452.47;;;16.32
24201;BMP280;2801;50.972;7.856;2022-07-10T10:42:41;98439.84;;;16.24
24201;BMP280;2801;50.972;7.856;2022-07-10T10:45:32;98440.31;;;16.26
24201;BMP280;2801;50.972;7.856;2022-07-10T10:48:08;98433.44;;;16.41
24201;BMP280;2801;50.972;7.856;2022-07-10T10:50:56;98433.69;;;16.48
24201;BMP280;2801;50.972;7.856;2022-07-10T10:53:28;98446.66;;;16.54
24201;BMP280;2801;50.972;7.856;2022-07-10T10:58:45;98446.78;;;16.46
24201;BMP280;2801;50.972;7.856;2022-07-10T11:04:15;98454.75;;;16.30
24201;BMP280;2801;50.972;7.856;2022-07-10T11:06:50;98440.88;;;16.32
24201;BMP280;2801;50.972;7.856;2022-07-10T11:09:30;98451.63;;;16.40
24201;BMP280;2801;50.972;7.856;2022-07-10T11:12:08;98446.91;;;16.49
24201;BMP280;2801;50.972;7.856;2022-07-10T11:14:39;98437.22;;;16.48
24201;BMP280;2801;50.972;7.856;2022-07-10T11:17:07;98445.19;;;16.57
24201;BMP280;2801;50.972;7.856;2022-07-10T11:19:35;98436.53;;;16.75
24201;BMP280;2801;50.972;7.856;2022-07-10T11:25:08;98438.22;;;16.80
24201;BMP280;2801;50.972;7.856;2022-07-10T11:28:04;98440.56;;;16.81
24201;BMP280;2801;50.972;7.856;2022-07-10T11:30:50;98433.47;;;16.89
24201;BMP280;2801;50.972;7.856;2022-07-10T11:33:18;98426.69;;;17.07
24201;BMP280;2801;50.972;7.856;2022-07-10T11:35:50;98422.47;;;17.21
24201;BMP280;2801;50.972;7.856;2022-07-10T11:38:25;98429.44;;;17.22
24201;BMP280;2801;50.972;7.856;2022-07-10T11:40:52;98420.41;;;17.30
24201;BMP280;2801;50.972;7.856;2022-07-10T11:43:22;98423.69;;;17.24
24201;BMP280;2801;50.972;7.856;2022-07-10T11:45:51;98423.47;;;17.29
24201;BMP280;2801;50.972;7.856;2022-07-10T11:48:22;98423.69;;;17.24
24201;BMP280;2801;50.972;7.856;2022-07-10T11:50:50;98426.00;;;17.10
24201;BMP280;2801;50.972;7.856;2022-07-10T11:53:28;98420.25;;;16.87
24201;BMP280;2801;50.972;7.856;2022-07-10T11:55:55;98435.72;;;16.87
24201;BMP280;2801;50.972;7.856;2022-07-10T11:58:22;98422.88;;;16.84
24201;BMP280;2801;50.972;7.856;2022-07-10T12:01:04;98426.00;;;16.86
24201;BMP280;2801;50.972;7.856;2022-07-10T12:03:35;98417.56;;;16.75
24201;BMP280;2801;50.972;7.856;2022-07-10T12:06:05;98424.34;;;16.69
24201;BMP280;2801;50.972;7.856;2022-07-10T12:08:46;98418.16;;;16.69
24201;BMP280;2801;50.972;7.856;2022-07-10T12:11:15;98419.63;;;16.66
24201;BMP280;2801;50.972;7.856;2022-07-10T12:13:44;98425.03;;;16.66
24201;BMP280;2801;50.972;7.856;2022-07-10T12:16:13;98435.88;;;16.66
24201;BMP280;2801;50.972;7.856;2022-07-10T12:18:42;98432.03;;;16.67
24201;BMP280;2801;50.972;7.856;2022-07-10T12:21:12;98433.50;;;16.65
24201;BMP280;2801;50.972;7.856;2022-07-10T12:23:41;98435.31;;;16.61
24201;BMP280;2801;50.972;7.856;2022-07-10T12:26:10;98432.38;;;16.54
24201;BMP280;2801;50.972;7.856;2022-07-10T12:28:54;98429.75;;;16.45
24201;BMP280;2801;50.972;7.856;2022-07-10T12:31:25;98436.75;;;16.46
24201;BMP280;2801;50.972;7.856;2022-07-10T12:33:58;98434.50;;;16.48
24201;BMP280;2801;50.972;7.856;2022-07-10T12:37:10;98418.66;;;16.26
24201;BMP280;2801;50.972;7.856;2022-07-10T12:39:47;98443.97;;;16.42
24201;BMP280;2801;50.972;7.856;2022-07-10T12:42:31;98446.78;;;16.46
24201;BMP280;2801;50.972;7.856;2022-07-10T12:45:15;98437.53;;;16.47
24201;BMP280;2801;50.972;7.856;2022-07-10T12:47:47;98440.13;;;16.43
24201;BMP280;2801;50.972;7.856;2022-07-10T12:50:17;98445.16;;;16.33
24201;BMP280;2801;50.972;7.856;2022-07-10T12:52:45;98444.34;;;16.32
24201;BMP280;2801;50.972;7.856;2022-07-10T12:55:19;98444.59;;;16.27
24201;BMP280;2801;50.972;7.856;2022-07-10T12:58:08;98447.28;;;16.27
24201;BMP280;2801;50.972;7.856;2022-07-10T13:00:43;98430.56;;;16.13
24201;BMP280;2801;50.972;7.856;2022-07-10T13:03:18;98442.22;;;16.26
24201;BMP280;2801;50.972;7.856;2022-07-10T13:05:45;98428.00;;;16.29
24201;BMP280;2801;50.972;7.856;2022-07-10T13:08:20;98436.31;;;16.44
24201;BMP280;2801;50.972;7.856;2022-07-10T13:10:54;98430.00;;;16.52
24201;BMP280;2801;50.972;7.856;2022-07-10T13:13:22;98429.75;;;16.57
24201;BMP280;2801;50.972;7.856;2022-07-10T13:15:49;98429.09;;;16.60
24201;BMP280;2801;50.972;7.856;2022-07-10T13:18:20;98432.22;;;16.62
24201;BMP280;2801;50.972;7.856;2022-07-10T13:20:50;98430.00;;;16.64
24201;BMP280;2801;50.972;7.856;2022-07-10T13:23:25;98424.47;;;16.73
24201;BMP280;2801;50.972;7.856;2022-07-10T13:25:53;98424.56;;;16.76
24201;BMP280;2801;50.972;7.856;2022-07-10T13:28:20;98432.56;;;16.85
24201;BMP280;2801;50.972;7.856;2022-07-10T13:30:47;98422.06;;;16.95
24201;BMP280;2801;50.972;7.856;2022-07-10T13:33:14;98431.53;;;17.01
24201;BMP280;2801;50.972;7.856;2022-07-10T13:35:42;98416.59;;;17.07
24201;BMP280;2801;50.972;7.856;2022-07-10T13:38:09;98427.22;;;17.12
24201;BMP280;2801;50.972;7.856;2022-07-10T13:40:42;98424.75;;;17.07
24201;BMP280;2801;50.972;7.856;2022-07-10T13:43:11;98424.53;;;17.12
24201;BMP280;2801;50.972;7.856;2022-07-10T13:45:39;98399.38;;;17.00
24201;BMP280;2801;50.972;7.856;2022-07-10T13:48:15;98408.94;;;17.09
24201;BMP280;2801;50.972;7.856;2022-07-10T13:50:45;98419.66;;;17.18
24201;BMP280;2801;50.972;7.856;2022-07-10T13:53:16;98413.25;;;17.38
24201;BMP280;2801;50.972;7.856;2022-07-10T13:55:43;98413.25;;;17.50
24201;BMP280;2801;50.972;7.856;2022-07-10T13:58:11;98407.06;;;17.49
24201;BMP280;2801;50.972;7.856;2022-07-10T14:00:39;98399.69;;;17.50
24201;BMP280;2801;50.972;7.856;2022-07-10T14:03:06;98402.25;;;17.58
24201;BMP280;2801;50.972;7.856;2022-07-10T14:05:34;98403.75;;;17.56
24201;BMP280;2801;50.972;7.856;2022-07-10T14:08:01;98410.88;;;17.48
24201;BMP280;2801;50.972;7.856;2022-07-10T14:10:28;98405.03;;;17.46
24201;BMP280;2801;50.972;7.856;2022-07-10T14:12:55;98402.44;;;17.38
24201;BMP280;2801;50.972;7.856;2022-07-10T14:15:23;98402.09;;;17.39
24201;BMP280;2801;50.972;7.856;2022-07-10T14:17:50;98411.38;;;17.26
24201;BMP280;2801;50.972;7.856;2022-07-10T14:20:18;98407.00;;;17.22
24201;BMP280;2801;50.972;7.856;2022-07-10T14:22:45;98411.63;;;17.21
24201;BMP280;2801;50.972;7.856;2022-07-10T14:25:14;98404.63;;;17.20
24201;BMP280;2801;50.972;7.856;2022-07-10T14:27:41;98396.50;;;17.20
24201;BMP280;2801;50.972;7.856;2022-07-10T14:30:09;98412.19;;;17.15
24201;BMP280;2801;50.972;7.856;2022-07-10T14:32:36;98402.97;;;17.04
24201;BMP280;2801;50.972;7.856;2022-07-10T14:35:04;98411.53;;;17.06
24201;BMP280;2801;50.972;7.856;2022-07-10T14:37:31;98408.25;;;17.12
24201;BMP280;2801;50.972;7.856;2022-07-10T14:39:58;98406.34;;;17.01
24201;BMP280;2801;50.972;7.856;2022-07-10T14:42:25;98403.97;;;16.99
24201;BMP280;2801;50.972;7.856;2022-07-10T14:44:52;98403.69;;;16.89
24201;BMP280;2801;50.972;7.856;2022-07-10T14:47:18;98407.06;;;16.86
24201;BMP280;2801;50.972;7.856;2022-07-10T14:49:45;98404.84;;;16.76